Time;durP1;ratioP1;P1;durP2;ratioP2;P2;SDS_P1;SDS_P2;PMS_P1;PMS_P2;Temp;Humidity;BMP_temperature;BMP_pressure;BME280_temperature;BME280_humidity;BME280_pressure;Samples;Min_cycle;Max_cycle;Signal;HPM_P1;HPM_P2
2023/06/24 00:00:15;;;;;;;14.37;11.87;;;17.00;99.90;;;;;;6224341;23;20421;-88
2023/06/24 00:02:47;;;;;;;16.83;12.63;;;;;;;;;;6220737;23;20402;-87
2023/06/24 00:05:20;;;;;;;14.90;13.20;;;16.90;99.90;;;;;;6221114;23;20438;-86
2023/06/24 00:07:50;;;;;;;17.13;13.80;;;17.10;99.90;;;;;;6222074;23;20720;-88
2023/06/24 00:10:18;;;;;;;25.63;17.87;;;;;;;;;;6223907;23;20414;-88
2023/06/24 00:12:46;;;;;;;18.53;13.67;;;17.20;99.90;;;;;;6222505;23;20821;-88
2023/06/24 00:15:18;;;;;;;14.57;13.07;;;17.20;99.90;;;;;;6220280;23;20433;-86
2023/06/24 00:18:05;;;;;;;20.27;15.00;;;17.10;99.90;;;;;;6221192;23;20506;-87
2023/06/24 00:20:33;;;;;;;16.27;13.77;;;;;;;;;;6220405;23;20439;-88
2023/06/24 00:23:03;;;;;;;21.60;15.20;;;17.10;99.90;;;;;;6222051;23;20782;-87
2023/06/24 00:25:31;;;;;;;17.40;15.30;;;;;;;;;;6221938;23;20438;-87
2023/06/24 00:27:58;;;;;;;23.33;16.70;;;;;;;;;;6221909;23;20399;-87
2023/06/24 00:30:27;;;;;;;17.97;15.93;;;17.10;99.90;;;;;;6226019;23;20418;-87
2023/06/24 00:32:54;;;;;;;19.53;16.27;;;;;;;;;;6233329;23;20435;-85
2023/06/24 00:35:23;;;;;;;20.33;16.33;;;;;;;;;;6227720;23;20418;-87
2023/06/24 00:37:50;;;;;;;20.57;16.80;;;;;;;;;;6224877;23;20410;-87
2023/06/24 00:40:19;;;;;;;22.60;17.60;;;;;;;;;;6230343;23;20410;-88
2023/06/24 00:42:51;;;;;;;23.23;18.67;;;17.00;99.90;;;;;;6221715;23;20493;-88
2023/06/24 00:45:18;;;;;;;23.43;18.30;;;;;;;;;;6238436;23;20412;-84
2023/06/24 00:47:49;;;;;;;21.57;19.30;;;17.00;99.90;;;;;;6244267;23;20386;-84
2023/06/24 00:50:21;;;;;;;21.80;17.90;;;17.00;99.90;;;;;;6243879;23;20470;-87
2023/06/24 00:52:49;;;;;;;26.97;20.63;;;;;;;;;;6239617;23;20498;-89
2023/06/24 00:55:17;;;;;;;24.50;19.23;;;;;;;;;;6231871;23;20434;-88
2023/06/24 00:57:45;;;;;;;25.40;19.97;;;17.00;99.90;;;;;;6226541;23;20814;-88
2023/06/24 01:00:18;;;;;;;28.40;22.03;;;16.90;99.90;;;;;;6221730;23;20418;-88
2023/06/24 01:02:51;;;;;;;23.60;18.40;;;17.00;99.90;;;;;;6221757;23;20434;-88
2023/06/24 01:05:23;;;;;;;23.40;19.27;;;;;;;;;;6220815;23;20438;-86
2023/06/24 01:07:55;;;;;;;29.57;21.10;;;16.90;99.90;;;;;;6221847;23;20430;-87
2023/06/24 01:10:23;;;;;;;22.50;19.70;;;16.90;99.90;;;;;;6227385;23;20393;-87
2023/06/24 01:12:50;;;;;;;25.60;19.50;;;16.90;99.90;;;;;;6223686;23;20480;-88
2023/06/24 01:15:19;;;;;;;23.50;19.87;;;16.60;99.90;;;;;;6224151;23;20434;-88
2023/06/24 01:17:55;;;;;;;22.43;20.00;;;16.90;99.90;;;;;;6224798;23;20438;-89
2023/06/24 01:20:28;;;;;;;23.00;20.50;;;16.90;99.90;;;;;;6233038;23;20418;-86
2023/06/24 01:23:29;;;;;;;25.40;20.30;;;16.90;99.90;;;;;;6245824;23;20458;-89
2023/06/24 01:26:20;;;;;;;21.73;18.43;;;16.80;99.90;;;;;;6236784;23;20437;-88
2023/06/24 01:29:02;;;;;;;22.10;19.07;;;16.80;99.90;;;;;;6245618;23;20394;-85
2023/06/24 01:31:40;;;;;;;24.67;19.93;;;16.70;99.90;;;;;;6245722;23;20436;-86
2023/06/24 01:34:16;;;;;;;24.80;21.27;;;17.00;99.90;;;;;;6245841;23;20401;-88
2023/06/24 01:36:48;;;;;;;24.87;19.37;;;16.50;99.90;;;;;;6242144;23;20460;-90
2023/06/24 01:39:22;;;;;;;22.87;19.57;;;16.70;99.90;;;;;;6228202;23;20409;-89
2023/06/24 01:41:56;;;;;;;24.03;20.07;;;16.60;99.90;;;;;;6225324;23;20409;-89
2023/06/24 01:44:28;;;;;;;23.33;19.60;;;16.50;99.90;;;;;;6227991;23;20460;-88
2023/06/24 01:47:16;;;;;;;22.60;17.97;;;16.60;99.90;;;;;;6240713;23;20410;-86
2023/06/24 01:49:47;;;;;;;22.47;18.87;;;16.70;99.90;;;;;;6244331;23;20395;-85
2023/06/24 01:52:19;;;;;;;19.20;17.20;;;16.70;99.90;;;;;;6245451;23;20434;-88
2023/06/24 01:54:48;;;;;;;20.93;18.63;;;16.70;99.90;;;;;;6245230;23;20469;-85
2023/06/24 01:57:19;;;;;;;22.07;18.87;;;16.70;99.90;;;;;;6227168;23;20489;-89
2023/06/24 01:59:47;;;;;;;20.83;17.40;;;16.70;99.90;;;;;;6224446;23;20413;-89
2023/06/24 02:02:26;;;;;;;21.43;18.17;;;16.70;99.90;;;;;;6233821;23;20407;-89
2023/06/24 02:04:55;;;;;;;21.90;19.37;;;16.70;99.90;;;;;;6243899;23;20390;-87
2023/06/24 02:07:24;;;;;;;23.20;18.23;;;16.50;99.90;;;;;;6225236;23;20413;-88
2023/06/24 02:09:53;;;;;;;20.47;18.20;;;16.50;99.90;;;;;;6223214;23;20414;-88
2023/06/24 02:12:21;;;;;;;22.73;19.27;;;16.50;99.90;;;;;;6222081;23;20465;-88
2023/06/24 02:14:49;;;;;;;23.10;18.40;;;16.30;99.90;;;;;;6222114;23;20790;-87
2023/06/24 02:17:17;;;;;;;24.00;20.17;;;16.50;99.90;;;;;;6222288;23;20424;-88
2023/06/24 02:19:46;;;;;;;22.13;18.90;;;16.60;99.90;;;;;;6222583;23;20394;-88
2023/06/24 02:22:14;;;;;;;22.03;17.80;;;16.30;99.90;;;;;;6221821;23;20430;-88
2023/06/24 02:24:42;;;;;;;18.47;16.43;;;16.60;99.90;;;;;;6222595;23;20399;-88
2023/06/24 02:27:10;;;;;;;23.33;18.60;;;16.60;99.90;;;;;;6222123;23;20453;-88
2023/06/24 02:29:40;;;;;;;23.60;17.70;;;16.30;99.90;;;;;;6222301;23;20437;-88
2023/06/24 02:32:08;;;;;;;19.60;17.17;;;16.60;99.90;;;;;;6223344;23;20463;-88
2023/06/24 02:34:35;;;;;;;20.30;18.20;;;16.30;99.90;;;;;;6226879;23;20413;-87
2023/06/24 02:37:04;;;;;;;18.40;15.47;;;16.40;99.90;;;;;;6223341;23;20442;-88
2023/06/24 02:39:31;;;;;;;19.13;15.30;;;16.20;99.90;;;;;;6223990;23;20417;-87
2023/06/24 02:41:58;;;;;;;19.00;15.10;;;16.10;99.90;;;;;;6222948;23;20414;-88
2023/06/24 02:44:25;;;;;;;20.13;15.50;;;16.10;99.90;;;;;;6221909;23;20417;-87
2023/06/24 02:46:54;;;;;;;17.67;15.13;;;16.10;99.90;;;;;;6222933;23;20955;-88
2023/06/24 02:49:22;;;;;;;18.90;15.17;;;16.00;99.90;;;;;;6228384;23;20437;-88
2023/06/24 02:51:49;;;;;;;20.30;14.10;;;;;;;;;;6243751;23;20472;-87
2023/06/24 02:54:18;;;;;;;16.90;13.43;;;16.00;99.90;;;;;;6244254;23;20393;-87
2023/06/24 02:57:15;;;;;;;15.70;13.97;;;15.80;99.90;;;;;;6229836;22;20453;-93
2023/06/24 02:59:59;;;;;;;21.67;14.87;;;16.00;99.90;;;;;;6245178;23;20393;-88
2023/06/24 03:02:48;;;;;;;15.83;14.00;;;16.00;99.90;;;;;;6240560;23;20409;-90
2023/06/24 03:05:50;;;;;;;19.77;13.33;;;16.00;99.90;;;;;;6221353;23;20393;-89
2023/06/24 03:08:30;;;;;;;16.80;12.83;;;16.00;99.90;;;;;;6220781;23;20417;-90
2023/06/24 03:11:29;;;;;;;15.93;13.43;;;15.90;99.90;;;;;;6220678;23;20436;-90
2023/06/24 03:14:10;;;;;;;16.37;13.40;;;15.90;99.90;;;;;;6218992;23;20413;-90
2023/06/24 03:16:44;;;;;;;14.33;12.90;;;;;;;;;;6219261;23;20926;-90
2023/06/24 03:19:20;;;;;;;18.97;13.87;;;15.90;99.90;;;;;;6218910;23;20752;-90
2023/06/24 03:22:02;;;;;;;17.43;13.80;;;15.90;99.90;;;;;;6218354;23;20542;-90
2023/06/24 03:25:09;;;;;;;13.87;12.23;;;16.00;99.90;;;;;;6218496;23;20487;-90
2023/06/24 03:28:17;;;;;;;21.80;12.47;;;15.90;99.90;;;;;;6218958;23;20417;-90
2023/06/24 03:31:32;;;;;;;16.67;12.63;;;15.90;99.90;;;;;;6243117;23;20472;-89
2023/06/24 03:40:35;;;;;;;13.60;11.93;;;16.00;99.90;;;;;;6234304;23;20453;-89
2023/06/24 03:43:34;;;;;;;14.03;11.90;;;15.90;99.90;;;;;;6118637;23;20436;-89
2023/06/24 03:52:37;;;;;;;;;;;;;;;;;;;;;
2023/06/24 03:58:16;;;;;;;14.30;12.20;;;15.80;99.90;;;;;;6219273;22;20840;-89
2023/06/24 04:04:30;;;;;;;16.87;12.60;;;16.00;99.90;;;;;;6152317;23;20394;-89
2023/06/24 04:07:10;;;;;;;13.30;11.90;;;16.10;99.90;;;;;;6219651;23;20516;-89
2023/06/24 04:09:37;;;;;;;12.97;11.63;;;;;;;;;;6225314;22;20457;-88
2023/06/24 04:12:05;;;;;;;14.40;11.20;;;15.90;99.90;;;;;;6227538;23;20444;-88
2023/06/24 04:14:32;;;;;;;13.37;11.97;;;;;;;;;;6220193;23;20404;-88
2023/06/24 04:17:01;;;;;;;16.20;12.33;;;;;;;;;;6224496;23;20801;-88
2023/06/24 04:19:34;;;;;;;15.80;13.30;;;15.80;99.90;;;;;;6222889;23;20440;-89
2023/06/24 04:22:05;;;;;;;15.77;13.00;;;15.70;99.90;;;;;;6223012;23;20413;-88
2023/06/24 04:24:32;;;;;;;20.17;14.17;;;;;;;;;;6222411;23;20404;-88
2023/06/24 04:27:00;;;;;;;20.40;14.20;;;;;;;;;;6222937;23;20409;-88
2023/06/24 04:29:27;;;;;;;20.90;16.67;;;;;;;;;;6222689;23;20437;-88
2023/06/24 04:31:54;;;;;;;15.13;12.67;;;;;;;;;;6221209;23;20446;-88
2023/06/24 04:34:22;;;;;;;18.00;13.60;;;;;;;;;;6221687;23;20459;-88
2023/06/24 04:36:50;;;;;;;15.13;12.40;;;15.70;99.90;;;;;;6225885;23;20407;-86
2023/06/24 04:39:18;;;;;;;31.67;23.17;;;;;;;;;;6222929;23;20443;-88
2023/06/24 04:41:46;;;;;;;39.13;29.33;;;;;;;;;;6234238;23;20404;-87
2023/06/24 04:44:13;;;;;;;17.60;13.90;;;;;;;;;;6244378;23;20392;-86
2023/06/24 04:46:41;;;;;;;17.63;12.90;;;;;;;;;;6235783;23;20417;-88
2023/06/24 04:49:08;;;;;;;15.43;12.70;;;;;;;;;;6237439;23;20612;-86
2023/06/24 04:51:36;;;;;;;15.70;13.40;;;;;;;;;;6245029;23;20418;-87
2023/06/24 04:54:12;;;;;;;19.67;13.57;;;15.80;99.90;;;;;;6245124;23;20484;-88
2023/06/24 04:56:41;;;;;;;15.60;12.43;;;;;;;;;;6246187;23;20476;-86
2023/06/24 04:59:08;;;;;;;15.83;12.60;;;;;;;;;;6242122;23;20479;-88
2023/06/24 05:01:35;;;;;;;15.87;12.20;;;;;;;;;;6229646;23;20407;-89
2023/06/24 05:04:03;;;;;;;18.93;13.80;;;;;;;;;;6226451;23;20468;-89
2023/06/24 05:06:31;;;;;;;17.57;12.67;;;16.10;99.90;;;;;;6225091;23;20419;-89
2023/06/24 05:08:59;;;;;;;14.50;12.40;;;;;;;;;;6224442;23;20721;-87
2023/06/24 05:11:36;;;;;;;15.13;12.73;;;16.30;99.90;;;;;;6224623;23;20428;-88
2023/06/24 05:14:03;;;;;;;14.97;12.50;;;;;;;;;;6225312;23;20424;-88
2023/06/24 05:16:31;;;;;;;14.60;12.20;;;;;;;;;;6226288;23;20431;-88
2023/06/24 05:19:00;;;;;;;21.40;12.30;;;16.20;99.90;;;;;;6222610;23;20450;-87
2023/06/24 05:21:27;;;;;;;15.30;11.80;;;;;;;;;;6223713;23;20404;-87
2023/06/24 05:23:54;;;;;;;12.23;10.87;;;;;;;;;;6222773;23;20417;-88
2023/06/24 05:26:21;;;;;;;14.03;11.03;;;;;;;;;;6225688;23;20392;-87
2023/06/24 05:28:50;;;;;;;12.97;10.50;;;16.20;99.90;;;;;;6230510;23;20496;-87
2023/06/24 05:31:18;;;;;;;15.27;11.80;;;;;;;;;;6239405;23;20406;-88
2023/06/24 05:33:48;;;;;;;14.23;11.90;;;16.40;90.90;;;;;;6242905;23;20445;-88
2023/06/24 05:36:18;;;;;;;13.43;12.10;;;16.40;1.00;;;;;;6236720;23;20403;-90
2023/06/24 05:38:45;;;;;;;12.03;9.93;;;;;;;;;;6226027;23;20401;-90
2023/06/24 05:41:13;;;;;;;17.40;11.47;;;;;;;;;;6225853;23;20808;-89
2023/06/24 05:43:40;;;;;;;14.77;11.23;;;;;;;;;;6223645;23;20437;-88
2023/06/24 05:46:11;;;;;;;12.80;10.90;;;16.70;99.90;;;;;;6223819;23;20495;-89
2023/06/24 05:48:39;;;;;;;11.20;9.83;;;;;;;;;;6230276;23;20403;-88
2023/06/24 05:51:09;;;;;;;18.13;11.30;;;;;;;;;;6224582;23;20429;-89
2023/06/24 05:53:37;;;;;;;14.50;11.13;;;;;;;;;;6224987;23;20830;-89
2023/06/24 05:56:04;;;;;;;19.20;11.27;;;;;;;;;;6223544;23;20424;-89
2023/06/24 05:58:32;;;;;;;16.50;9.90;;;;;;;;;;6223933;23;20471;-88
2023/06/24 06:01:05;;;;;;;11.40;10.27;;;16.90;99.90;;;;;;6225277;23;20495;-89
2023/06/24 06:03:52;;;;;;;14.90;11.63;;;17.00;99.90;;;;;;6224813;23;20394;-87
2023/06/24 06:06:27;;;;;;;13.90;10.30;;;17.10;1.00;;;;;;6224180;23;20398;-88
2023/06/24 06:08:55;;;;;;;13.40;10.70;;;;;;;;;;6242157;23;20386;-87
2023/06/24 06:11:22;;;;;;;11.57;10.23;;;;;;;;;;6244836;23;20402;-87
2023/06/24 06:13:50;;;;;;;11.63;9.90;;;;;;;;;;6245285;23;20422;-86
2023/06/24 06:16:29;;;;;;;12.77;11.17;;;16.90;99.90;;;;;;6245015;23;20408;-86
2023/06/24 06:19:02;;;;;;;11.77;10.60;;;16.90;99.90;;;;;;6245034;23;20391;-86
2023/06/24 06:21:36;;;;;;;12.57;10.60;;;17.00;99.90;;;;;;6245318;23;20453;-88
2023/06/24 06:24:07;;;;;;;11.93;10.33;;;17.00;99.90;;;;;;6245120;23;20437;-88
2023/06/24 06:26:34;;;;;;;15.33;10.60;;;;;;;;;;6245328;23;20400;-88
2023/06/24 06:29:02;;;;;;;11.63;9.10;;;;;;;;;;6245277;23;20535;-85
2023/06/24 06:31:48;;;;;;;10.40;9.40;;;17.40;1.00;;;;;;6245238;23;20386;-85
2023/06/24 06:34:23;;;;;;;16.33;11.07;;;19.20;1.00;;;;;;6245217;23;20429;-85
2023/06/24 06:36:50;;;;;;;11.37;9.10;;;;;;;;;;6245314;23;20374;-83
2023/06/24 06:39:18;;;;;;;14.77;10.33;;;;;;;;;;6245298;23;20399;-84
2023/06/24 06:41:55;;;;;;;10.93;9.80;;;17.70;99.90;;;;;;6245297;23;20398;-84
2023/06/24 06:44:25;;;;;;;12.33;9.23;;;;;;;;;;6245207;23;20408;-85
2023/06/24 06:47:03;;;;;;;15.97;9.80;;;17.70;99.90;;;;;;6244787;23;20421;-85
2023/06/24 06:49:46;;;;;;;12.23;8.53;;;17.70;20.70;;;;;;6244843;23;20417;-86
2023/06/24 06:52:13;;;;;;;9.50;8.20;;;;;;;;;;6244207;23;20381;-87
2023/06/24 06:54:43;;;;;;;9.77;8.77;;;18.00;99.90;;;;;;6231301;23;20561;-88
2023/06/24 07:00:23;;;;;;;11.20;8.50;;;18.20;1.00;;;;;;6236514;23;20429;-87
2023/06/24 07:03:03;;;;;;;13.90;9.03;;;18.10;99.90;;;;;;6242778;23;20386;-88
2023/06/24 07:09:46;;;;;;;8.33;7.63;;;18.40;1.00;;;;;;6137975;23;20949;-87
2023/06/24 07:12:24;;;;;;;13.03;9.40;;;18.50;1.00;;;;;;6228233;23;20828;-89
2023/06/24 07:15:19;;;;;;;11.10;9.13;;;18.50;1.00;;;;;;6224652;23;20465;-88
2023/06/24 07:21:01;;;;;;;10.47;7.80;;;18.60;99.90;;;;;;6218779;23;20426;-88
2023/06/24 07:38:00;;;;;;;18.83;11.03;;;19.00;99.90;;;;;;6063337;23;20414;-84
2023/06/24 07:44:07;;;;;;;9.20;8.37;;;19.00;1.00;;;;;;6145188;22;20446;-91
2023/06/24 07:46:39;;;;;;;8.97;7.10;;;;;;;;;;6231079;23;20402;-91
2023/06/24 07:49:42;;;;;;;8.97;7.80;;;19.30;99.90;;;;;;6224402;23;20421;-91
2023/06/24 07:52:12;;;;;;;7.40;6.67;;;19.10;99.90;;;;;;6231854;23;20456;-91
2023/06/24 07:54:41;;;;;;;8.20;7.37;;;;;;;;;;6235632;23;20476;-92
2023/06/24 07:57:21;;;;;;;8.50;6.70;;;19.30;30.60;;;;;;6230465;23;20407;-92
2023/06/24 07:59:57;;;;;;;7.43;6.73;;;19.30;99.90;;;;;;6229783;22;20512;-91
2023/06/24 08:02:26;;;;;;;7.63;6.83;;;19.40;87.30;;;;;;6235463;23;20412;-91
2023/06/24 08:04:54;;;;;;;7.73;7.03;;;;;;;;;;6234463;23;20441;-92
2023/06/24 08:07:33;;;;;;;8.50;6.57;;;19.30;99.90;;;;;;6234697;23;20414;-92
2023/06/24 08:26:57;;;;;;;9.10;7.00;;;19.80;99.90;;;;;;6086184;22;1292896;-90
2023/06/24 08:29:25;;;;;;;8.93;8.13;;;;;;;;;;6172270;23;20183;-91
2023/06/24 08:31:54;;;;;;;9.80;7.03;;;;;;;;;;6172966;23;20720;-91
2023/06/24 08:34:22;;;;;;;10.37;6.20;;;;;;;;;;6182082;23;20447;-91
2023/06/24 08:36:49;;;;;;;8.17;6.73;;;;;;;;;;6186447;23;20434;-91
2023/06/24 08:39:17;;;;;;;11.73;9.07;;;;;;;;;;6177382;23;20507;-89
2023/06/24 08:41:52;;;;;;;8.30;7.57;;;19.80;99.90;;;;;;6215714;23;20403;-88
2023/06/24 08:47:38;;;;;;;7.23;6.37;;;19.80;99.90;;;;;;6211776;23;20394;-88
2023/06/24 08:50:33;;;;;;;9.30;7.33;;;19.90;99.90;;;;;;6213065;23;20506;-89
2023/06/24 08:53:42;;;;;;;;;;;;;;;;;;;;;
2023/06/24 08:59:50;;;;;;;7.40;6.60;;;19.90;99.90;;;;;;6197692;23;20399;-89
2023/06/24 09:06:20;;;;;;;6.83;6.10;;;20.20;1.00;;;;;;5987754;23;20416;-88
2023/06/24 09:08:57;;;;;;;6.60;6.00;;;20.20;99.90;;;;;;6175679;23;20410;-88
2023/06/24 09:11:32;;;;;;;6.83;6.10;;;20.20;99.90;;;;;;6200690;23;20860;-88
2023/06/24 09:17:37;;;;;;;14.30;6.70;;;20.20;29.80;;;;;;6195551;23;20391;-89
2023/06/24 09:20:11;;;;;;;7.43;6.00;;;20.30;99.90;;;;;;6193261;23;20770;-89
2023/06/24 09:22:46;;;;;;;6.63;5.93;;;20.30;1.00;;;;;;6205347;23;20422;-89
2023/06/24 09:25:19;;;;;;;7.23;6.53;;;20.50;99.90;;;;;;6202448;23;20723;-89
2023/06/24 09:27:52;;;;;;;7.50;6.33;;;20.60;99.90;;;;;;6196411;23;20420;-89
2023/06/24 09:30:23;;;;;;;7.07;6.47;;;;;;;;;;6170798;23;20448;-88
2023/06/24 09:33:03;;;;;;;5.60;5.10;;;20.60;99.90;;;;;;6176512;23;20416;-89
2023/06/24 09:35:39;;;;;;;8.13;5.50;;;20.40;1.00;;;;;;6175945;23;20491;-90
2023/06/24 09:38:17;;;;;;;;;;;;;;;;;;;;;
2023/06/24 09:41:08;;;;;;;7.10;6.40;;;20.50;1.00;;;;;;6176572;23;20443;-88
2023/06/24 09:43:39;;;;;;;6.10;5.50;;;;;;;;;;6177744;23;20399;-88
2023/06/24 09:46:07;;;;;;;7.67;6.80;;;;;;;;;;6184605;23;20424;-90
2023/06/24 09:48:39;;;;;;;8.23;6.27;;;20.60;99.90;;;;;;6184105;23;20403;-90
2023/06/24 09:51:17;;;;;;;6.23;5.63;;;20.70;1.00;;;;;;6174602;23;20432;-91
2023/06/24 09:53:48;;;;;;;6.73;5.80;;;20.80;99.90;;;;;;6172867;23;20400;-90
2023/06/24 09:56:20;;;;;;;6.90;6.20;;;20.80;98.50;;;;;;6172135;23;20424;-89
2023/06/24 09:58:54;;;;;;;6.40;5.40;;;20.80;1.00;;;;;;6172065;23;20416;-90
2023/06/24 10:01:29;;;;;;;6.13;5.53;;;;;;;;;;6169222;23;20400;-90
2023/06/24 10:04:08;;;;;;;5.60;5.10;;;20.90;99.90;;;;;;6164856;23;20415;-89
2023/06/24 10:06:48;;;;;;;5.57;5.07;;;20.90;1.00;;;;;;6163964;23;20884;-89
2023/06/24 10:09:31;;;;;;;7.47;5.23;;;20.90;1.00;;;;;;6179209;23;20427;-90
2023/06/24 10:12:10;;;;;;;7.43;6.00;;;20.80;1.00;;;;;;6184752;23;20388;-90
2023/06/24 10:14:41;;;;;;;8.33;7.63;;;20.80;1.00;;;;;;6182547;23;20404;-88
2023/06/24 10:17:14;;;;;;;5.67;5.17;;;20.90;20.30;;;;;;6168680;23;20408;-89
2023/06/24 10:19:50;;;;;;;4.87;4.57;;;20.90;1.00;;;;;;6165505;23;20484;-89
2023/06/24 10:22:19;;;;;;;4.97;4.53;;;;;;;;;;6164421;23;20407;-88
2023/06/24 10:24:56;;;;;;;5.37;4.87;;;21.00;1.00;;;;;;6165400;23;20412;-89
2023/06/24 10:27:32;;;;;;;4.53;4.20;;;;;;;;;;6168099;23;20419;-89
2023/06/24 10:30:05;;;;;;;5.13;4.37;;;20.90;1.00;;;;;;6184790;23;20407;-92
2023/06/24 10:32:43;;;;;;;5.67;5.17;;;21.00;54.50;;;;;;6184916;23;20419;-90
2023/06/24 10:35:27;;;;;;;4.80;4.30;;;21.00;1.00;;;;;;6184601;23;20434;-92
2023/06/24 10:37:58;;;;;;;4.80;4.40;;;20.80;1.00;;;;;;6183471;23;20393;-89
2023/06/24 10:40:44;;;;;;;7.33;5.47;;;20.80;1.00;;;;;;6183159;23;20543;-89
2023/06/24 10:43:31;;;;;;;4.60;4.20;;;20.90;1.00;;;;;;6179946;23;20410;-89
2023/06/24 10:46:15;;;;;;;4.83;4.43;;;21.00;99.90;;;;;;6179187;23;20468;-88
2023/06/24 10:48:43;;;;;;;9.23;4.27;;;;;;;;;;6178222;23;20462;-88
2023/06/24 10:51:16;;;;;;;5.37;4.60;;;21.30;1.00;;;;;;6182018;23;20412;-89
2023/06/24 10:53:43;;;;;;;8.00;5.20;;;;;;;;;;6158736;23;20423;-90
2023/06/24 10:56:17;;;;;;;4.70;4.20;;;21.40;1.00;;;;;;6176962;23;20446;-91
2023/06/24 10:59:05;;;;;;;4.63;4.33;;;21.50;1.00;;;;;;6177895;23;20387;-89
2023/06/24 11:01:35;;;;;;;5.37;4.87;;;;;;;;;;6177919;23;20423;-89
2023/06/24 11:04:07;;;;;;;6.67;5.30;;;21.60;1.00;;;;;;6172985;23;20399;-89
2023/06/24 11:06:38;;;;;;;4.67;4.37;;;21.60;1.00;;;;;;6176797;23;20798;-89
2023/06/24 11:09:10;;;;;;;4.80;4.40;;;21.60;1.00;;;;;;6180899;23;20413;-88
2023/06/24 11:11:42;;;;;;;4.67;4.27;;;21.70;1.00;;;;;;6181309;23;20437;-89
2023/06/24 11:14:12;;;;;;;5.30;4.80;;;;;;;;;;6182238;23;20488;-88
2023/06/24 11:16:41;;;;;;;7.00;5.60;;;;;;;;;;6180059;23;20432;-89
2023/06/24 11:19:43;;;;;;;5.13;4.57;;;21.90;1.00;;;;;;6181094;23;20423;-90
2023/06/24 11:22:26;;;;;;;6.20;5.60;;;21.90;1.00;;;;;;6169133;23;20419;-89
2023/06/24 11:25:04;;;;;;;5.70;5.07;;;;;;;;;;6167288;23;20423;-89
2023/06/24 11:27:35;;;;;;;5.70;5.10;;;22.10;1.00;;;;;;6164934;23;20416;-89
2023/06/24 11:30:06;;;;;;;4.67;4.37;;;;;;;;;;6170467;23;20487;-88
2023/06/24 11:35:37;;;;;;;5.77;5.20;;;22.00;1.00;;;;;;6167033;23;20544;-89
2023/06/24 11:38:10;;;;;;;5.57;5.00;;;21.90;1.00;;;;;;6167525;23;20412;-90
2023/06/24 11:40:39;;;;;;;5.40;4.53;;;22.00;1.00;;;;;;6165137;23;20455;-88
2023/06/24 11:43:09;;;;;;;6.17;4.70;;;;;;;;;;6167042;23;20447;-90
2023/06/24 11:45:38;;;;;;;5.07;4.67;;;21.90;1.00;;;;;;6165908;23;20478;-90
2023/06/24 11:48:18;;;;;;;5.53;5.13;;;21.90;1.00;;;;;;6163314;23;20432;-89
2023/06/24 11:50:53;;;;;;;7.03;5.00;;;;;;;;;;6164059;23;20576;-89
2023/06/24 11:53:45;;;;;;;8.00;4.70;;;22.10;1.00;;;;;;6167917;23;20494;-89
2023/06/24 11:56:49;;;;;;;4.70;3.80;;;22.10;1.00;;;;;;6183492;23;20425;-89
2023/06/24 11:59:26;;;;;;;4.93;4.33;;;22.10;1.00;;;;;;6183508;23;20440;-89
2023/06/24 12:02:03;;;;;;;7.23;4.43;;;22.20;1.00;;;;;;6170408;23;20411;-89
2023/06/24 12:04:36;;;;;;;6.73;5.20;;;22.30;1.00;;;;;;6165496;23;20729;-90
2023/06/24 12:07:17;;;;;;;7.40;5.17;;;21.90;23.10;;;;;;6167876;23;20396;-88
2023/06/24 12:09:51;;;;;;;6.50;4.70;;;22.10;1.00;;;;;;6167504;23;20427;-89
2023/06/24 12:12:29;;;;;;;5.00;4.50;;;22.30;1.00;;;;;;6170044;23;20381;-88
2023/06/24 12:15:10;;;;;;;5.27;4.87;;;22.40;1.00;;;;;;6175200;23;20392;-90
2023/06/24 12:17:41;;;;;;;5.83;5.30;;;;;;;;;;6183578;23;20388;-91
2023/06/24 12:20:17;;;;;;;6.00;4.80;;;;;;;;;;6182811;23;20432;-89
2023/06/24 12:28:56;;;;;;;5.83;5.23;;;22.80;1.00;;;;;;6164415;23;20410;-89
2023/06/24 12:31:35;;;;;;;5.80;5.40;;;23.10;1.00;;;;;;6175643;23;20408;-88
2023/06/24 12:34:12;;;;;;;5.87;4.63;;;;;;;;;;6166795;23;20478;-88
2023/06/24 12:36:57;;;;;;;6.20;5.60;;;22.80;1.00;;;;;;6178389;23;20462;-91
2023/06/24 12:39:40;;;;;;;4.83;4.50;;;22.80;1.00;;;;;;6183194;23;20466;-90
2023/06/24 12:45:30;;;;;;;5.90;4.70;;;23.00;1.00;;;;;;6181288;23;20399;-89
2023/06/24 12:47:59;;;;;;;5.47;4.97;;;;;;;;;;6180968;23;20460;-91
2023/06/24 12:50:39;;;;;;;5.10;4.67;;;22.90;1.00;;;;;;6173308;23;20460;-89
2023/06/24 12:53:14;;;;;;;5.60;5.10;;;22.40;1.00;;;;;;6173293;23;20410;-89
2023/06/24 12:56:14;;;;;;;8.67;4.87;;;22.90;1.00;;;;;;6167232;23;20435;-90
2023/06/24 12:58:52;;;;;;;6.43;4.63;;;22.90;1.00;;;;;;6165047;23;20408;-89
2023/06/24 13:01:44;;;;;;;7.03;5.60;;;23.00;1.00;;;;;;6171254;23;20450;-89
2023/06/24 13:04:19;;;;;;;5.50;5.00;;;23.10;1.00;;;;;;6168118;23;20392;-88
2023/06/24 13:06:48;;;;;;;5.70;5.20;;;;;;;;;;6168261;23;20410;-87
2023/06/24 13:09:23;;;;;;;6.20;4.80;;;23.30;1.00;;;;;;6168833;23;20431;-89
2023/06/24 13:11:58;;;;;;;8.93;5.50;;;;;;;;;;6173648;23;20492;-88
2023/06/24 13:14:37;;;;;;;19.60;14.73;;;23.30;1.00;;;;;;6168594;23;20421;-90
2023/06/24 13:17:17;;;;;;;6.60;6.00;;;23.40;1.00;;;;;;6171270;23;20471;-89
2023/06/24 13:20:01;;;;;;;6.00;5.43;;;23.40;1.00;;;;;;6184035;23;20439;-89
2023/06/24 13:22:32;;;;;;;7.40;5.70;;;23.50;1.00;;;;;;6184468;23;20431;-89
2023/06/24 13:25:07;;;;;;;8.80;7.30;;;23.50;1.00;;;;;;6180236;23;20427;-89
2023/06/24 13:27:40;;;;;;;5.27;4.77;;;;;;;;;;6177750;23;20401;-90
2023/06/24 13:30:25;;;;;;;5.50;5.00;;;23.60;1.00;;;;;;6184764;23;20440;-93
2023/06/24 13:32:59;;;;;;;5.17;4.60;;;;;;;;;;6184652;23;20439;-91
2023/06/24 13:35:42;;;;;;;5.60;5.10;;;23.50;1.00;;;;;;6182478;23;20396;-91
2023/06/24 13:38:15;;;;;;;12.20;5.07;;;23.30;1.00;;;;;;6180807;23;20407;-90
2023/06/24 13:43:33;;;;;;;10.57;6.10;;;23.50;1.00;;;;;;6179428;23;20403;-89
2023/06/24 13:46:13;;;;;;;9.47;7.60;;;23.60;1.00;;;;;;6171054;23;20400;-89
2023/06/24 13:48:56;;;;;;;4.63;4.23;;;23.70;1.00;;;;;;6167386;23;20464;-89
2023/06/24 13:51:24;;;;;;;5.80;5.30;;;;;;;;;;6170440;23;20376;-89
2023/06/24 13:53:54;;;;;;;10.07;5.90;;;23.80;1.00;;;;;;6166585;23;20451;-89
2023/06/24 13:56:25;;;;;;;5.10;4.70;;;;;;;;;;6170934;23;20487;-89
2023/06/24 14:02:02;;;;;;;5.73;5.13;;;23.90;1.00;;;;;;6153306;23;20396;-89
2023/06/24 14:07:16;;;;;;;6.63;5.93;;;;;;;;;;6176389;23;20392;-89
2023/06/24 14:09:54;;;;;;;6.40;5.23;;;23.90;1.00;;;;;;6174980;23;20825;-89
2023/06/24 14:12:28;;;;;;;6.53;5.33;;;24.00;1.00;;;;;;6173616;23;20401;-90
2023/06/24 14:18:06;;;;;;;5.60;5.00;;;24.00;1.00;;;;;;6165453;23;20448;-90
2023/06/24 14:20:41;;;;;;;5.13;4.63;;;;;;;;;;6166502;23;20458;-91
2023/06/24 14:23:34;;;;;;;4.50;4.10;;;24.00;1.00;;;;;;6166618;23;20404;-90
2023/06/24 14:26:07;;;;;;;8.30;4.50;;;24.00;1.00;;;;;;6165606;23;20439;-91
2023/06/24 14:28:47;;;;;;;5.77;4.73;;;24.00;1.00;;;;;;6167155;23;20439;-89
2023/06/24 14:31:18;;;;;;;6.00;5.03;;;23.80;1.00;;;;;;6167928;23;20542;-89
2023/06/24 14:33:57;;;;;;;5.20;4.80;;;24.00;1.00;;;;;;6165560;23;20416;-89
2023/06/24 14:36:28;;;;;;;5.63;5.10;;;23.90;1.00;;;;;;6165939;23;20580;-89
2023/06/24 14:38:56;;;;;;;7.10;5.33;;;;;;;;;;6166317;23;20412;-90
2023/06/24 14:41:25;;;;;;;8.13;7.30;;;;;;;;;;6160681;23;20482;-92
2023/06/24 14:43:52;;;;;;;5.30;4.80;;;;;;;;;;6164028;23;20397;-92
2023/06/24 14:46:20;;;;;;;5.27;4.70;;;;;;;;;;6164869;23;20411;-91
2023/06/24 14:48:49;;;;;;;5.17;4.53;;;24.00;1.00;;;;;;6164613;23;20504;-92
2023/06/24 14:51:16;;;;;;;5.27;4.83;;;;;;;;;;6164562;23;20416;-92
2023/06/24 14:53:46;;;;;;;7.30;6.50;;;;;;;;;;6165998;23;20420;-93
2023/06/24 14:56:14;;;;;;;6.03;5.53;;;;;;;;;;6170342;23;20451;-91
2023/06/24 14:58:41;;;;;;;5.23;4.67;;;;;;;;;;6183519;23;20404;-91
2023/06/24 15:01:08;;;;;;;6.93;5.57;;;;;;;;;;6184109;23;20432;-91
2023/06/24 15:03:36;;;;;;;7.77;7.07;;;;;;;;;;6181152;23;20404;-91
2023/06/24 15:06:04;;;;;;;5.57;5.07;;;24.30;1.00;;;;;;6164958;23;20409;-91
2023/06/24 15:08:31;;;;;;;6.33;5.80;;;;;;;;;;6167238;23;20408;-91
2023/06/24 15:10:59;;;;;;;13.40;10.13;;;;;;;;;;6174931;23;20432;-91
2023/06/24 15:13:26;;;;;;;5.50;4.80;;;;;;;;;;6173662;23;20770;-91
2023/06/24 15:15:56;;;;;;;9.83;6.23;;;;;;;;;;6162665;23;20742;-91
2023/06/24 15:24:38;;;;;;;5.73;5.23;;;24.40;1.00;;;;;;6158967;23;20546;-92
2023/06/24 15:27:09;;;;;;;20.80;18.70;;;24.40;1.00;;;;;;6163399;23;20408;-92
2023/06/24 15:29:36;;;;;;;12.73;7.23;;;;;;;;;;6163148;23;20522;-92
2023/06/24 15:32:04;;;;;;;6.40;5.80;;;;;;;;;;6163786;23;20416;-92
2023/06/24 15:34:31;;;;;;;5.80;5.30;;;;;;;;;;6174313;23;20428;-92
2023/06/24 15:36:59;;;;;;;6.00;5.50;;;;;;;;;;6175267;23;20440;-92
2023/06/24 15:39:27;;;;;;;6.27;5.60;;;;;;;;;;6165433;23;20490;-91
2023/06/24 15:41:55;;;;;;;8.97;8.10;;;24.40;1.00;;;;;;6163744;23;20494;-92
2023/06/24 15:44:22;;;;;;;6.80;5.50;;;;;;;;;;6166137;23;20447;-92